עמוד ראשי
METAR-TAF:

METAR-TAF

שדות תעופה :

ולינגטון, ניו זילנד

קו רוחב: 41-20S, קו אורך: 174-48E, גובה: 12מטר

תצפית מזג אוויר נוכחית

הדו"ח נערך לפני 20דקות, בשעה 11:30 UTC
רוח 17קשר מכיוון דרום/דרום-מזרח
טמפרטורת 9 צלסיוס
לחות 81%
לחץ 1033 hPa
ראות 10 קילומטר או יותר

METAR: NZWN 121130Z AUTO 15017KT 9999 SCT022/// BKN050/// 09/06 Q1033

זמן: 23:50 (11:50 UTC)

תחזית

הדו"ח נערך לפני 35דקות, בשעה 11:15 UTC
תחזית בתוקף מ 12 ב 12 UTC עד 13 ב 18 UTC
רוח 15קשר מכיוון דרום/דרום-מזרח
ראות 10 קילומטר או יותר
עננים פזורים בגובה 2000רגל
עננים בינוניים בגובה 4000רגל
ממטרי גשם קלים,

TAF: NZWN 121115Z 1212/1318 16015KT 9999 -SHRA SCT020 BKN040

תצפיות ותחזיות מזג אוויר לגבי יותר מ- 4,000 שדות תעופה ברחבי העולם. דוחות METAR ו- TAF.

התחנות הזמינות מסומנות בנקודות צהובות ואדומות על גבי המפה.

העבר את העכבר לנקודה הצבעונית על מנת לראות את שם התחנה.

לאחר מכן, לחץ כדי לראות את תוכן ואת תחזיות מזג האוויר.

כדי לשנות את המפה: לחץ על הכפתורים הירוקים עם הפלוס השחור כדי להתקרב; על הכפתור הירוק עם המקף כדי להתרחק; או בחיצים הירוקים למפות סמוכות.


METAR-TAF: